Time;durP1;ratioP1;P1;durP2;ratioP2;P2;SDS_P1;SDS_P2;PMS_P1;PMS_P2;Temp;Humidity;BMP_temperature;BMP_pressure;BME280_temperature;BME280_humidity;BME280_pressure;Samples;Min_cycle;Max_cycle;Signal;HPM_P1;HPM_P2
2023/11/16 00:00:35;;;;;;;5.93;1.83;;;;;;;-145.69;67.38;52361.22;5068432;28;20206;-80
2023/11/16 00:03:03;;;;;;;2.07;1.20;;;;;;;-145.69;67.50;52367.16;5064879;28;20230;-80
2023/11/16 00:05:35;;;;;;;8.03;1.40;;;;;;;-145.69;68.22;52341.41;5051477;28;20593;-80
2023/11/16 00:08:05;;;;;;;7.83;1.53;;;;;;;-145.69;67.69;52373.09;5080374;28;20234;-80
2023/11/16 00:10:34;;;;;;;6.07;1.70;;;;;;;-145.69;68.13;52383.00;5092443;28;20568;-80
2023/11/16 00:13:01;;;;;;;4.43;1.40;;;;;;;-145.69;67.82;52373.09;5100661;28;20235;-80
2023/11/16 00:15:27;;;;;;;8.77;1.50;;;;;;;-145.69;67.67;52365.16;5112866;28;20198;-80
2023/11/16 00:17:54;;;;;;;9.90;1.80;;;;;;;-145.69;67.99;52335.47;5112691;28;20649;-80
2023/11/16 00:20:22;;;;;;;9.77;1.60;;;;;;;-145.69;67.85;52353.28;5112832;28;20297;-80
2023/11/16 00:22:51;;;;;;;2.87;1.37;;;;;;;-145.69;67.67;52345.38;5112579;28;20529;-80
2023/11/16 00:25:17;;;;;;;9.33;2.07;;;;;;;-145.69;68.05;52345.38;5114953;28;20197;-80
2023/11/16 00:27:45;;;;;;;7.80;1.60;;;;;;;-145.69;68.16;52355.28;5116602;28;20236;-80
2023/11/16 00:30:14;;;;;;;6.50;1.57;;;;;;;-145.69;68.25;52357.25;5116534;28;20197;-80
2023/11/16 00:32:40;;;;;;;4.10;1.60;;;;;;;-145.69;68.03;52377.06;5116178;28;20201;-80
2023/11/16 00:35:08;;;;;;;7.73;1.50;;;;;;;-145.69;68.27;52377.06;5116193;28;20200;-80
2023/11/16 00:37:35;;;;;;;4.40;1.57;;;;;;;-145.69;67.92;52321.59;5116379;28;20676;-80
2023/11/16 00:40:05;;;;;;;9.20;1.60;;;;;;;-145.69;67.99;52381.00;5116494;28;20198;-80
2023/11/16 00:42:31;;;;;;;9.60;1.70;;;;;;;-145.69;68.18;52377.06;5116271;28;20190;-80
2023/11/16 00:44:59;;;;;;;3.23;1.20;;;;;;;-145.69;68.47;52377.06;5116374;28;20201;-80
2023/11/16 00:47:26;;;;;;;5.60;1.30;;;;;;;-145.69;68.10;52337.44;5115937;28;20556;-80
2023/11/16 00:49:53;;;;;;;8.37;1.93;;;;;;;-145.69;68.30;52345.38;5115995;28;20648;-80
2023/11/16 00:52:20;;;;;;;7.27;1.50;;;;;;;-145.69;68.00;52329.53;5116120;28;20732;-80
2023/11/16 00:54:48;;;;;;;4.43;1.40;;;;;;;-145.69;68.18;52309.72;5116189;28;20250;-80
2023/11/16 00:57:15;;;;;;;7.80;1.60;;;;;;;-145.69;68.27;52321.59;5116197;28;20211;-80
2023/11/16 00:59:43;;;;;;;3.17;1.40;;;;;;;-145.69;68.51;52353.28;5116067;28;20220;-80
2023/11/16 01:02:12;;;;;;;11.50;1.63;;;;;;;-145.69;68.33;52325.56;5115405;28;20228;-81
2023/11/16 01:04:41;;;;;;;3.47;1.40;;;;;;;-145.69;68.02;52333.47;5115691;28;20197;-81
2023/11/16 01:07:10;;;;;;;7.27;1.50;;;;;;;-145.69;68.47;52319.63;5115765;28;20228;-80
2023/11/16 01:09:36;;;;;;;4.83;1.40;;;;;;;-145.69;67.81;52327.53;5115635;28;20231;-81
2023/11/16 01:12:03;;;;;;;7.70;1.40;;;;;;;-145.69;67.88;52327.53;5115804;28;20217;-81
2023/11/16 01:14:30;;;;;;;6.83;2.10;;;;;;;-145.69;68.09;52363.19;5115568;28;20197;-81
2023/11/16 01:17:03;;;;;;;5.27;1.23;;;;;;;-145.69;68.34;52321.59;5115587;28;20201;-81
2023/11/16 01:19:32;;;;;;;6.47;1.20;;;;;;;-145.69;67.92;52343.38;5115794;28;20205;-80
2023/11/16 01:22:00;;;;;;;6.70;1.50;;;;;;;-145.69;67.48;52317.66;5115428;28;20227;-81
2023/11/16 01:24:28;;;;;;;5.70;1.10;;;;;;;-145.69;67.72;52305.75;5115586;28;20229;-81
2023/11/16 01:26:59;;;;;;;2.43;1.23;;;;;;;-145.69;67.22;52353.28;5111138;28;20189;-81
2023/11/16 01:29:27;;;;;;;6.40;1.33;;;;;;;-145.69;67.77;52339.44;5094904;28;20226;-81
2023/11/16 01:31:54;;;;;;;6.73;1.47;;;;;;;-145.69;67.48;52349.31;5107548;28;20204;-81
2023/11/16 01:34:22;;;;;;;4.80;1.30;;;;;;;-145.69;67.53;52357.25;5115218;28;20197;-81
2023/11/16 01:36:51;;;;;;;10.90;1.37;;;;;;;-145.69;67.44;52287.94;5114643;27;20193;-80
2023/11/16 01:39:18;;;;;;;7.87;1.70;;;;;;;-145.69;67.53;52345.38;5114814;28;20555;-81
2023/11/16 01:41:44;;;;;;;4.73;1.27;;;;;;;-145.69;67.25;52365.16;5115221;28;20225;-79
2023/11/16 01:44:11;;;;;;;5.03;1.60;;;;;;;-145.69;67.30;52337.44;5114969;28;20283;-81
2023/11/16 01:46:37;;;;;;;5.63;1.60;;;;;;;-145.69;66.99;52361.22;5115266;28;20197;-80
2023/11/16 01:49:04;;;;;;;3.07;1.00;;;;;;;-145.69;67.15;52369.13;5114823;28;20575;-80
2023/11/16 01:51:32;;;;;;;7.67;1.60;;;;;;;-145.69;67.19;52359.22;5114958;28;20236;-80
2023/11/16 01:54:02;;;;;;;6.57;1.10;;;;;;;-145.69;67.61;52349.31;5115050;28;20202;-80
2023/11/16 01:56:32;;;;;;;5.17;1.30;;;;;;;-145.69;67.72;52375.06;5115003;28;20201;-80
2023/11/16 01:59:01;;;;;;;4.53;1.40;;;;;;;-145.69;69.11;52315.66;5113741;28;20451;-80
2023/11/16 02:01:29;;;;;;;3.43;1.30;;;;;;;-145.69;67.48;52333.47;5114737;28;20201;-81
2023/11/16 02:03:55;;;;;;;5.33;1.37;;;;;;;-145.69;67.37;52361.22;5114121;28;20193;-80
2023/11/16 02:06:22;;;;;;;3.00;1.30;;;;;;;-145.69;67.22;52337.44;5114055;28;20201;-80
2023/11/16 02:08:49;;;;;;;4.67;1.40;;;;;;;-145.69;66.56;52305.75;5113110;28;20740;-81
2023/11/16 02:11:17;;;;;;;4.77;1.40;;;;;;;-145.69;66.83;52337.44;5091091;28;20205;-80
2023/11/16 02:13:44;;;;;;;8.93;1.40;;;;;;;-145.69;66.36;52351.31;5092782;28;20198;-81
2023/11/16 02:16:10;;;;;;;2.37;0.80;;;;;;;-145.69;67.00;52384.97;5091806;28;20209;-81
2023/11/16 02:18:38;;;;;;;7.43;0.90;;;;;;;-145.69;66.39;52331.50;5091910;28;20198;-80
2023/11/16 02:21:06;;;;;;;3.97;1.00;;;;;;;-145.69;66.38;52325.56;5093417;28;20553;-80
2023/11/16 02:23:35;;;;;;;4.87;1.03;;;;;;;-145.69;66.63;52353.28;5093486;28;20243;-77
2023/11/16 02:26:01;;;;;;;4.03;1.40;;;;;;;-145.69;66.05;52355.28;5093724;28;20208;-81
2023/11/16 02:28:30;;;;;;;3.00;1.17;;;;;;;-145.69;66.14;52351.31;5093785;28;20222;-80
2023/11/16 02:30:57;;;;;;;3.97;1.30;;;;;;;-145.69;67.06;52333.47;5094025;28;20285;-81
2023/11/16 02:33:24;;;;;;;2.50;1.20;;;;;;;-145.69;66.89;52349.31;5108243;28;20593;-80
2023/11/16 02:35:52;;;;;;;5.13;1.47;;;;;;;-145.69;67.59;52349.31;5113900;28;20205;-81
2023/11/16 02:38:18;;;;;;;6.77;1.20;;;;;;;-145.69;67.32;52359.22;5114234;28;20204;-80
2023/11/16 02:40:49;;;;;;;8.87;1.07;;;;;;;-145.69;66.75;52351.31;5113889;28;20239;-79
2023/11/16 02:43:18;;;;;;;2.07;1.00;;;;;;;-145.69;66.42;52351.31;5114301;28;20201;-80
2023/11/16 02:45:44;;;;;;;4.13;1.30;;;;;;;-145.69;66.66;52345.38;5113791;28;20197;-80
2023/11/16 02:48:11;;;;;;;4.97;1.30;;;;;;;-145.69;66.96;52355.28;5112775;28;20197;-80
2023/11/16 02:50:37;;;;;;;9.43;1.77;;;;;;;-145.69;66.80;52351.31;5113490;28;20193;-79
2023/11/16 02:53:04;;;;;;;6.67;1.37;;;;;;;-145.69;67.48;52361.22;5113724;28;20205;-80
2023/11/16 02:55:34;;;;;;;5.23;1.00;;;;;;;-145.69;66.50;52337.44;5113585;28;20205;-80
2023/11/16 02:58:02;;;;;;;2.20;1.10;;;;;;;-145.69;66.95;52361.22;5113849;28;20629;-80
2023/11/16 03:00:31;;;;;;;1.03;0.90;;;;;;;-145.69;66.15;52341.41;5113753;28;20220;-80
2023/11/16 03:02:58;;;;;;;2.23;1.13;;;;;;;-145.69;66.05;52365.16;5113607;28;20205;-80
2023/11/16 03:05:25;;;;;;;1.33;1.20;;;;;;;-145.69;65.98;52317.66;5113238;28;20521;-80
2023/11/16 03:07:53;;;;;;;4.40;1.40;;;;;;;-145.69;65.67;52341.41;5113209;28;20257;-80
2023/11/16 03:10:21;;;;;;;3.30;1.23;;;;;;;-145.69;66.66;52339.44;5113443;28;20229;-80
2023/11/16 03:12:48;;;;;;;3.23;1.07;;;;;;;-145.69;66.71;52325.56;5113353;28;20198;-81
2023/11/16 03:15:15;;;;;;;4.03;1.40;;;;;;;-145.69;66.86;52381.00;5113178;28;20204;-82
2023/11/16 03:17:43;;;;;;;6.77;1.10;;;;;;;-145.69;66.95;52349.31;5113367;28;20205;-81
2023/11/16 03:20:12;;;;;;;2.40;1.00;;;;;;;-145.69;66.00;52343.38;5113694;28;20205;-81
2023/11/16 03:22:39;;;;;;;6.20;1.27;;;;;;;-145.69;66.38;52329.53;5113018;28;20289;-81
2023/11/16 03:25:07;;;;;;;2.97;1.10;;;;;;;-145.69;66.67;52327.53;5113008;28;20614;-81
2023/11/16 03:27:34;;;;;;;4.87;1.00;;;;;;;-145.69;66.73;52337.44;5092689;28;20199;-80
2023/11/16 03:30:00;;;;;;;7.87;1.30;;;;;;;-145.69;66.27;52309.72;5092868;28;20226;-81
2023/11/16 03:32:29;;;;;;;5.73;1.00;;;;;;;-145.69;66.50;52351.31;5099852;28;20209;-80
2023/11/16 03:34:57;;;;;;;2.37;1.07;;;;;;;-145.69;66.43;52335.47;5113212;28;20621;-80
2023/11/16 03:37:24;;;;;;;4.97;1.20;;;;;;;-145.69;66.79;52339.44;5113121;28;20201;-80
2023/11/16 03:39:50;;;;;;;5.00;1.20;;;;;;;-145.69;66.83;52309.72;5113192;28;20204;-81
2023/11/16 03:42:18;;;;;;;3.90;0.97;;;;;;;-145.69;66.63;52333.47;5113215;28;20672;-81
2023/11/16 03:44:44;;;;;;;6.33;1.10;;;;;;;-145.69;65.98;52343.38;5113162;28;20197;-80
2023/11/16 03:47:11;;;;;;;6.32;1.50;;;;;;;-145.69;66.87;52315.66;5112517;28;20427;-81
2023/11/16 03:49:38;;;;;;;3.77;1.00;;;;;;;-145.69;65.96;52329.53;5113180;28;20250;-81
2023/11/16 03:52:05;;;;;;;6.17;1.20;;;;;;;-145.69;65.26;52345.38;5112956;28;20197;-81
2023/11/16 03:54:32;;;;;;;2.20;1.20;;;;;;;-145.69;65.39;52325.56;5113223;28;20243;-81
2023/11/16 03:56:58;;;;;;;9.10;1.43;;;;;;;-145.69;66.06;52315.66;5113222;28;20205;-81
2023/11/16 03:59:25;;;;;;;2.43;0.97;;;;;;;-145.69;66.26;52375.06;5113932;28;20197;-81
2023/11/16 04:01:52;;;;;;;2.47;1.07;;;;;;;-145.69;65.56;52295.84;5117150;28;20197;-81
2023/11/16 04:04:19;;;;;;;6.27;1.10;;;;;;;-145.69;65.88;52325.56;5117103;28;20193;-81
2023/11/16 04:06:47;;;;;;;4.60;1.20;;;;;;;-145.69;66.33;52333.47;5116778;28;20225;-80
2023/11/16 04:09:14;;;;;;;4.87;1.27;;;;;;;-145.69;66.46;52339.44;5116907;28;20741;-80
2023/11/16 04:11:41;;;;;;;2.00;1.10;;;;;;;-145.69;66.93;52353.28;5116993;28;20213;-80
2023/11/16 04:14:08;;;;;;;2.40;1.30;;;;;;;-145.69;66.85;52315.66;5116652;28;20254;-82
2023/11/16 04:16:35;;;;;;;3.23;0.87;;;;;;;-145.69;66.55;52361.22;5117081;28;20207;-80
2023/11/16 04:19:03;;;;;;;6.10;1.03;;;;;;;-145.69;66.83;52363.19;5116976;28;20197;-80
2023/11/16 04:21:30;;;;;;;3.73;1.10;;;;;;;-145.69;66.35;52357.25;5116622;28;20194;-80
2023/11/16 04:23:59;;;;;;;3.97;1.10;;;;;;;-145.69;67.23;52309.72;5116915;28;20201;-80
2023/11/16 04:26:27;;;;;;;2.87;0.97;;;;;;;-145.69;66.84;52351.31;5116532;28;20197;-80
2023/11/16 04:28:53;;;;;;;4.17;1.37;;;;;;;-145.69;66.66;52297.84;5116468;28;20232;-80
2023/11/16 04:31:20;;;;;;;4.47;1.00;;;;;;;-145.69;67.05;52317.66;5116773;27;20205;-80
2023/11/16 04:33:47;;;;;;;3.13;1.20;;;;;;;-145.69;66.36;52325.56;5116309;28;20204;-80
2023/11/16 04:36:17;;;;;;;11.33;1.70;;;;;;;-145.69;66.54;52289.91;5116575;28;20197;-80
2023/11/16 04:38:45;;;;;;;3.87;1.30;;;;;;;-145.69;65.88;52301.81;5116403;28;20197;-80
2023/11/16 04:41:13;;;;;;;5.80;1.30;;;;;;;-145.69;65.88;52339.44;5116400;28;20201;-80
2023/11/16 04:43:40;;;;;;;6.50;1.83;;;;;;;-145.69;65.73;52347.34;5116387;28;20197;-81
2023/11/16 04:46:07;;;;;;;4.07;1.27;;;;;;;-145.69;65.63;52359.22;5116412;28;20210;-80
2023/11/16 04:48:34;;;;;;;9.70;1.30;;;;;;;-145.69;65.24;52353.28;5116128;28;20663;-80
2023/11/16 04:51:01;;;;;;;5.13;1.47;;;;;;;-145.69;65.68;52317.66;5116099;28;20197;-80
2023/11/16 04:53:28;;;;;;;4.87;1.33;;;;;;;-145.69;65.03;52307.75;5115858;28;20564;-80
2023/11/16 04:55:55;;;;;;;3.13;1.20;;;;;;;-145.69;65.41;52307.75;5116115;28;20656;-80
2023/11/16 04:58:23;;;;;;;6.40;1.10;;;;;;;-145.69;64.87;52283.97;5115704;28;20197;-81
2023/11/16 05:00:49;;;;;;;2.27;1.10;;;;;;;-145.69;64.81;52321.59;5116268;28;20197;-80
2023/11/16 05:03:16;;;;;;;3.20;1.20;;;;;;;-145.69;65.23;52333.47;5115438;28;20209;-80
2023/11/16 05:05:42;;;;;;;3.23;1.30;;;;;;;-145.69;65.00;52309.72;5115738;28;20678;-81
2023/11/16 05:08:09;;;;;;;4.27;1.20;;;;;;;-145.69;64.85;52315.66;5115623;28;20236;-81
2023/11/16 05:10:35;;;;;;;7.63;1.73;;;;;;;-145.69;64.41;52329.53;5115083;28;20225;-80
2023/11/16 05:13:03;;;;;;;4.53;1.50;;;;;;;-145.69;65.10;52361.22;5115273;28;20190;-80
2023/11/16 05:15:31;;;;;;;2.20;1.10;;;;;;;-145.69;64.79;52311.69;5115839;28;20197;-80
2023/11/16 05:17:58;;;;;;;4.63;1.50;;;;;;;-145.69;64.69;52335.47;5115704;28;20197;-80
2023/11/16 05:20:24;;;;;;;4.43;1.33;;;;;;;-145.69;64.76;52307.75;5115362;28;20197;-81
2023/11/16 05:22:51;;;;;;;3.83;1.27;;;;;;;-145.69;64.50;52333.47;5115578;28;20237;-80
2023/11/16 05:25:17;;;;;;;2.77;1.17;;;;;;;-145.69;65.14;52337.44;5102575;28;20198;-80
2023/11/16 05:27:44;;;;;;;5.13;1.60;;;;;;;-145.69;64.94;52327.53;5095339;28;20232;-81
2023/11/16 05:30:10;;;;;;;2.73;1.17;;;;;;;-145.69;64.85;52331.50;5095123;28;20225;-80
2023/11/16 05:32:38;;;;;;;4.63;1.20;;;;;;;-145.69;64.65;52363.19;5101101;28;20199;-81
2023/11/16 05:35:06;;;;;;;6.07;1.37;;;;;;;-145.69;64.53;52331.50;5115164;28;20721;-81
2023/11/16 05:37:32;;;;;;;2.93;1.23;;;;;;;-145.69;64.69;52327.53;5115237;28;20559;-81
2023/11/16 05:40:03;;;;;;;8.27;1.43;;;;;;;-145.69;65.16;52321.59;5115242;28;20201;-81
2023/11/16 05:42:30;;;;;;;3.50;1.03;;;;;;;-145.69;64.93;52384.97;5115484;28;20201;-81
2023/11/16 05:44:57;;;;;;;3.13;1.17;;;;;;;-145.69;64.02;52327.53;5115196;28;20621;-81
2023/11/16 05:47:24;;;;;;;5.53;1.30;;;;;;;-145.69;64.42;52329.53;5114912;28;20664;-80
2023/11/16 05:49:52;;;;;;;5.63;1.40;;;;;;;-145.69;64.01;52337.44;5115115;28;20217;-81
2023/11/16 05:52:18;;;;;;;4.43;1.60;;;;;;;-145.69;65.00;52339.44;5114975;28;20197;-81
2023/11/16 05:54:46;;;;;;;3.33;1.30;;;;;;;-145.69;65.50;52337.44;5115116;28;20205;-81
2023/11/16 05:57:14;;;;;;;2.57;1.30;;;;;;;-145.69;65.63;52349.31;5114727;28;20251;-81
2023/11/16 05:59:41;;;;;;;3.33;1.20;;;;;;;-145.69;65.39;52353.28;5114865;28;20209;-81
2023/11/16 06:02:09;;;;;;;3.83;1.67;;;;;;;-145.69;65.88;52329.53;5114572;28;20190;-81
2023/11/16 06:04:35;;;;;;;7.10;1.50;;;;;;;-145.69;65.47;52396.84;5114924;28;20229;-81
2023/11/16 06:07:04;;;;;;;7.23;1.60;;;;;;;-145.69;65.48;52293.88;5114495;28;20248;-81
2023/11/16 06:09:31;;;;;;;4.00;1.30;;;;;;;-145.69;65.33;52361.22;5114732;28;20225;-81
2023/11/16 06:11:58;;;;;;;3.93;1.47;;;;;;;-145.69;65.31;52325.56;5114488;28;20268;-80
2023/11/16 06:14:25;;;;;;;4.73;1.20;;;;;;;-145.69;65.80;52345.38;5114694;28;20233;-81
2023/11/16 06:16:51;;;;;;;5.17;1.60;;;;;;;-145.69;65.41;52325.56;5114405;28;20200;-81
2023/11/16 06:19:18;;;;;;;13.57;1.90;;;;;;;-145.69;65.81;52341.41;5114319;28;20202;-80
2023/11/16 06:21:45;;;;;;;2.83;1.10;;;;;;;-145.69;65.42;52369.13;5114066;28;20556;-79
2023/11/16 06:24:12;;;;;;;5.77;1.50;;;;;;;-145.69;66.11;52369.13;5114393;28;20201;-80
2023/11/16 06:26:39;;;;;;;6.30;1.63;;;;;;;-145.69;66.21;52333.47;5112150;28;20201;-80
2023/11/16 06:29:07;;;;;;;6.07;1.50;;;;;;;-145.69;66.25;52359.22;5105337;28;20296;-80
2023/11/16 06:31:33;;;;;;;8.87;1.70;;;;;;;-145.69;65.97;52363.19;5109498;28;20208;-81
2023/11/16 06:34:00;;;;;;;6.20;1.77;;;;;;;-145.69;65.92;52359.22;5109922;28;20209;-80
2023/11/16 06:36:27;;;;;;;7.47;1.27;;;;;;;-145.69;65.68;52333.47;5111118;28;20197;-80
2023/11/16 06:38:53;;;;;;;13.13;1.70;;;;;;;-145.69;66.50;52347.34;5112111;28;20201;-80
2023/11/16 06:41:21;;;;;;;6.23;1.60;;;;;;;-145.69;65.69;52325.56;5113377;28;20773;-81
2023/11/16 06:43:47;;;;;;;6.47;1.60;;;;;;;-145.69;66.37;52341.41;5113926;28;20208;-80
2023/11/16 06:46:15;;;;;;;3.70;1.50;;;;;;;-145.69;66.23;52359.22;5114047;28;20582;-80
2023/11/16 06:48:42;;;;;;;3.83;1.60;;;;;;;-145.69;65.96;52337.44;5114199;28;20243;-81
2023/11/16 06:51:09;;;;;;;3.40;1.47;;;;;;;-145.69;65.92;52325.56;5113270;28;20308;-80
2023/11/16 06:53:35;;;;;;;12.07;1.50;;;;;;;-145.69;66.53;52371.13;5113649;28;20612;-81
2023/11/16 06:56:04;;;;;;;3.83;1.70;;;;;;;-145.69;66.02;52359.22;5113710;28;20208;-80
2023/11/16 06:58:34;;;;;;;5.73;1.50;;;;;;;-145.69;66.47;52351.31;5113140;28;20199;-81
2023/11/16 07:01:03;;;;;;;8.40;1.53;;;;;;;-145.69;66.60;52317.66;5113772;28;20552;-81
2023/11/16 07:03:30;;;;;;;2.67;1.23;;;;;;;-145.69;66.25;52329.53;5113175;28;20623;-80
2023/11/16 07:05:57;;;;;;;4.20;1.63;;;;;;;-145.69;66.48;52349.31;5113778;28;20219;-81
2023/11/16 07:08:23;;;;;;;6.13;1.73;;;;;;;-145.69;66.64;52345.38;5113346;28;20237;-81
2023/11/16 07:10:50;;;;;;;4.20;1.30;;;;;;;-145.69;66.66;52325.56;5113468;28;20651;-80
2023/11/16 07:13:19;;;;;;;8.03;1.90;;;;;;;-145.69;66.53;52313.69;5113319;28;20205;-81
2023/11/16 07:15:48;;;;;;;6.00;1.30;;;;;;;-145.69;66.73;52329.53;5113293;28;20202;-81
2023/11/16 07:18:16;;;;;;;2.33;1.00;;;;;;;-145.69;66.32;52351.31;5113027;28;20224;-80
2023/11/16 07:20:43;;;;;;;2.87;1.30;;;;;;;-145.69;65.93;52361.22;5113312;28;20197;-81
2023/11/16 07:23:10;;;;;;;3.17;1.50;;;;;;;-145.69;66.22;52339.44;5113378;28;20673;-80
2023/11/16 07:25:37;;;;;;;4.50;1.47;;;;;;;-145.69;65.86;52323.59;5113376;28;20205;-80
2023/11/16 07:28:04;;;;;;;8.10;1.60;;;;;;;-145.69;66.48;52345.38;5111575;28;20193;-79
2023/11/16 07:30:32;;;;;;;7.43;1.97;;;;;;;-145.69;66.41;52369.13;5093250;28;20273;-79
2023/11/16 07:33:00;;;;;;;7.30;1.70;;;;;;;-145.69;66.34;52339.44;5102919;28;20200;-80
2023/11/16 07:35:26;;;;;;;3.03;1.40;;;;;;;-145.69;66.24;52333.47;5112672;28;20198;-79
2023/11/16 07:37:53;;;;;;;5.63;1.53;;;;;;;-145.69;66.54;52323.59;5113399;28;20300;-79
2023/11/16 07:40:20;;;;;;;9.13;1.67;;;;;;;-145.69;66.33;52321.59;5113082;28;20204;-80
2023/11/16 07:42:47;;;;;;;2.30;1.30;;;;;;;-145.69;66.07;52339.44;5113369;28;20197;-80
2023/11/16 07:45:15;;;;;;;5.97;1.50;;;;;;;-145.69;66.11;52361.22;5112928;28;20246;-80
2023/11/16 07:47:43;;;;;;;5.77;1.20;;;;;;;-145.69;65.81;52309.72;5113288;28;20193;-80
2023/11/16 07:50:13;;;;;;;7.70;1.63;;;;;;;-145.69;65.91;52361.22;5112992;28;20229;-79
2023/11/16 07:52:43;;;;;;;8.57;1.30;;;;;;;-145.69;65.74;52323.59;5112781;28;20201;-80
2023/11/16 07:55:12;;;;;;;5.97;1.90;;;;;;;-145.69;65.21;52351.31;5113157;28;20194;-79
2023/11/16 07:57:39;;;;;;;3.27;1.80;;;;;;;-145.69;65.58;52353.28;5112953;28;20645;-79
2023/11/16 08:00:11;;;;;;;5.03;1.60;;;;;;;-145.69;65.36;52317.66;5113017;28;20292;-79
2023/11/16 08:03:42;;;;;;;7.70;2.53;;;;;;;-145.69;65.64;52321.59;5112772;28;20652;-79
2023/11/16 08:05:26;;;;;;;3.80;1.97;;;;;;;-145.69;65.31;52291.91;5112728;28;20197;-79
2023/11/16 08:07:55;;;;;;;4.60;1.30;;;;;;;-145.69;65.54;52309.72;5112819;28;20264;-79
2023/11/16 08:10:23;;;;;;;4.63;1.47;;;;;;;-145.69;65.49;52321.59;5113017;28;20225;-79
2023/11/16 08:12:51;;;;;;;3.30;1.50;;;;;;;-145.69;65.45;52325.56;5112749;28;20228;-79
2023/11/16 08:15:18;;;;;;;5.60;1.60;;;;;;;-145.69;65.32;52309.72;5112266;28;20622;-80
2023/11/16 08:17:45;;;;;;;3.83;1.50;;;;;;;-145.69;64.70;52319.63;5112393;28;20208;-80
2023/11/16 08:20:13;;;;;;;4.47;1.50;;;;;;;-145.69;65.28;52353.28;5113046;28;20204;-80
2023/11/16 08:22:42;;;;;;;2.23;1.47;;;;;;;-145.69;64.61;52313.69;5112427;28;20288;-79
2023/11/16 08:25:09;;;;;;;5.10;1.40;;;;;;;-145.69;64.09;52317.66;5112942;28;20205;-79
2023/11/16 08:27:36;;;;;;;12.60;1.60;;;;;;;-145.69;63.05;52317.66;5112764;28;20198;-80
2023/11/16 08:30:02;;;;;;;4.97;1.20;;;;;;;-145.69;62.49;52309.72;5112703;28;20320;-79
2023/11/16 08:32:29;;;;;;;8.70;1.60;;;;;;;-145.69;60.28;52301.81;5112534;28;20569;-79
2023/11/16 08:34:55;;;;;;;7.77;1.77;;;;;;;-145.69;61.71;52291.91;5112820;28;20239;-79
2023/11/16 08:37:23;;;;;;;5.83;1.50;;;;;;;-145.69;61.32;52282.00;5112790;28;20290;-79
2023/11/16 08:39:51;;;;;;;7.93;1.73;;;;;;;-145.69;61.27;52297.84;5112304;28;20201;-79
2023/11/16 08:42:23;;;;;;;4.73;1.50;;;;;;;-145.69;60.70;52276.06;5112650;28;20723;-79
2023/11/16 08:44:50;;;;;;;6.47;1.20;;;;;;;-145.69;61.73;52283.97;5112144;28;20579;-79
2023/11/16 08:47:18;;;;;;;4.67;1.30;;;;;;;-145.69;61.34;52289.91;5114534;28;20200;-79
2023/11/16 08:49:47;;;;;;;7.53;1.60;;;;;;;-145.69;60.81;52307.75;5116022;28;20216;-79
2023/11/16 08:52:14;;;;;;;6.13;1.43;;;;;;;-145.69;59.81;52272.09;5116358;28;20205;-80
2023/11/16 08:54:41;;;;;;;2.37;1.40;;;;;;;-145.69;59.13;52278.03;5115957;28;20698;-79
2023/11/16 08:57:09;;;;;;;5.53;1.40;;;;;;;-145.69;60.47;52283.97;5115672;28;20653;-78
2023/11/16 08:59:36;;;;;;;3.50;1.30;;;;;;;-145.69;58.97;52276.06;5115934;28;20236;-78
2023/11/16 09:02:04;;;;;;;3.07;1.20;;;;;;;-145.69;58.69;52282.00;5115954;28;20194;-78
2023/11/16 09:04:30;;;;;;;4.23;1.50;;;;;;;-145.69;58.39;52293.88;5115987;28;20197;-78
2023/11/16 09:07:02;;;;;;;2.90;1.63;;;;;;;-145.69;56.52;52283.97;5115581;28;20231;-77
2023/11/16 09:09:37;;;;;;;8.17;1.20;;;;;;;-145.69;56.40;52297.84;5115094;28;20194;-78
2023/11/16 09:12:12;;;;;;;8.07;1.60;;;;;;;-145.69;54.48;52317.66;5115326;28;20229;-78
2023/11/16 09:14:40;;;;;;;4.40;1.10;;;;;;;-145.69;53.25;52291.91;5114200;28;20192;-78
2023/11/16 09:17:17;;;;;;;7.23;2.00;;;;;;;-145.69;52.97;52276.06;5115513;28;20655;-79
2023/11/16 09:19:56;;;;;;;1.37;0.90;;;;;;;-145.69;52.38;52297.84;5115223;27;20193;-79
2023/11/16 09:22:23;;;;;;;4.50;1.20;;;;;;;-145.69;52.60;52297.84;5115606;28;20205;-79
2023/11/16 09:24:50;;;;;;;16.10;5.60;;;;;;;-145.69;52.41;52256.25;5115815;28;20212;-79
2023/11/16 09:27:20;;;;;;;7.23;2.90;;;;;;;-145.69;52.72;52289.91;5115243;28;20190;-79
2023/11/16 09:29:52;;;;;;;3.13;0.97;;;;;;;-145.69;51.03;52262.19;5115364;28;20236;-79
2023/11/16 09:32:18;;;;;;;5.07;1.00;;;;;;;-145.69;51.28;52268.13;5115273;28;20315;-79
2023/11/16 09:34:45;;;;;;;5.63;1.10;;;;;;;-145.69;51.20;52266.16;5113374;28;20202;-79
2023/11/16 09:37:11;;;;;;;2.03;1.00;;;;;;;-145.69;51.26;52305.75;5095747;28;20645;-79
2023/11/16 09:39:38;;;;;;;6.17;0.90;;;;;;;-145.69;51.61;52283.97;5114710;28;20197;-79
2023/11/16 09:42:08;;;;;;;3.30;1.10;;;;;;;-145.69;51.84;52268.13;5114844;28;20198;-78
2023/11/16 09:44:40;;;;;;;2.27;1.20;;;;;;;-145.69;50.37;52258.22;5114907;28;20212;-79
2023/11/16 09:47:25;;;;;;;2.80;0.80;;;;;;;-145.69;50.09;52293.88;5115066;28;20232;-79
2023/11/16 09:49:55;;;;;;;6.87;1.37;;;;;;;-145.69;48.86;52250.31;5115036;28;20200;-80
2023/11/16 09:52:22;;;;;;;5.33;1.10;;;;;;;-145.69;50.32;52285.97;5114781;28;20679;-79
2023/11/16 09:54:50;;;;;;;3.63;1.40;;;;;;;-145.69;49.78;52287.94;5114953;28;20198;-80
2023/11/16 09:57:20;;;;;;;8.67;1.20;;;;;;;-145.69;49.63;52262.19;5114475;28;20225;-79
2023/11/16 09:59:52;;;;;;;6.17;1.23;;;;;;;-145.69;48.65;52289.91;5114822;28;20193;-79
2023/11/16 10:02:23;;;;;;;2.47;1.03;;;;;;;-145.69;48.31;52266.16;5115025;28;20292;-78
2023/11/16 10:04:50;;;;;;;4.77;1.07;;;;;;;-145.69;50.51;52266.16;5114953;28;20197;-80
2023/11/16 10:07:20;;;;;;;5.43;1.27;;;;;;;-145.69;49.52;52260.22;5114553;28;20706;-79
2023/11/16 10:09:49;;;;;;;4.20;1.00;;;;;;;-145.69;49.77;52287.94;5114245;28;20205;-80
2023/11/16 10:12:16;;;;;;;6.00;1.97;;;;;;;-145.69;50.36;52283.97;5114260;28;20236;-79
2023/11/16 10:14:51;;;;;;;78.90;21.90;;;;;;;-145.69;50.77;52256.25;5114436;28;20201;-79
2023/11/16 10:17:17;;;;;;;61.30;19.43;;;;;;;-145.69;51.07;52246.34;5114209;28;20193;-79
2023/11/16 10:19:47;;;;;;;36.70;15.30;;;;;;;-145.69;51.22;52256.25;5114350;28;20208;-80
2023/11/16 10:22:13;;;;;;;15.10;5.23;;;;;;;-145.69;50.99;52270.13;5113587;28;20202;-79
2023/11/16 10:24:40;;;;;;;27.13;9.60;;;;;;;-145.69;51.20;52289.91;5113045;28;20198;-80
2023/11/16 10:27:09;;;;;;;15.00;6.37;;;;;;;-145.69;50.55;52236.44;5114234;28;20198;-79
2023/11/16 10:29:36;;;;;;;9.97;3.03;;;;;;;-145.69;50.89;52240.41;5114223;28;20288;-79
2023/11/16 10:32:06;;;;;;;11.93;2.97;;;;;;;-145.69;50.74;52238.44;5114238;28;20308;-79
2023/11/16 10:34:37;;;;;;;7.83;2.07;;;;;;;-145.69;50.35;52264.16;5113885;28;20193;-80
2023/11/16 10:37:09;;;;;;;9.73;2.00;;;;;;;-145.69;50.38;52236.44;5113274;28;20196;-79
2023/11/16 10:39:39;;;;;;;8.00;2.20;;;;;;;-145.69;49.66;52246.34;5113753;27;20237;-80
2023/11/16 10:42:08;;;;;;;5.47;1.40;;;;;;;-145.69;50.09;52254.28;5114216;28;20200;-79
2023/11/16 10:44:36;;;;;;;5.10;1.63;;;;;;;-145.69;49.23;52262.19;5114170;28;20281;-79
2023/11/16 10:47:08;;;;;;;7.53;1.30;;;;;;;-145.69;49.76;52254.28;5114148;28;20283;-79
2023/11/16 10:49:35;;;;;;;4.35;1.48;;;;;;;-145.69;49.96;52234.47;5113856;28;20219;-79
2023/11/16 10:52:05;;;;;;;5.40;1.23;;;;;;;-145.69;49.05;52270.13;5113704;28;20225;-79
2023/11/16 10:54:39;;;;;;;7.40;1.33;;;;;;;-145.69;47.69;52238.44;5114062;28;20251;-79
2023/11/16 10:57:06;;;;;;;4.90;1.23;;;;;;;-145.69;48.21;52270.13;5113699;28;20204;-80
2023/11/16 10:59:34;;;;;;;3.90;1.20;;;;;;;-145.69;48.80;52220.59;5113583;28;20671;-79
2023/11/16 11:02:03;;;;;;;2.63;0.80;;;;;;;-145.69;48.35;52218.63;5113286;28;20594;-79
2023/11/16 11:04:30;;;;;;;6.07;1.53;;;;;;;-145.69;48.80;52226.53;5113653;28;20291;-81
2023/11/16 11:06:56;;;;;;;3.85;1.40;;;;;;;-145.69;48.33;52218.63;5113124;28;20225;-79
2023/11/16 11:09:42;;;;;;;8.10;1.35;;;;;;;-145.69;47.14;52230.50;5112815;28;20237;-79
2023/11/16 11:12:12;;;;;;;10.87;3.87;;;;;;;-145.69;47.54;52248.34;5112948;28;20265;-80
2023/11/16 11:14:47;;;;;;;27.02;12.65;;;;;;;-145.69;47.25;52236.44;5113512;28;20560;-79
2023/11/16 11:17:17;;;;;;;30.55;11.48;;;;;;;-145.69;46.54;52192.88;5113600;28;20663;-80
2023/11/16 11:19:55;;;;;;;36.03;12.15;;;;;;;-145.69;46.46;52220.59;5113561;28;20201;-80